sensor_id;sensor_type;location;lat;lon;timestamp;P1;durP1;ratioP1;P2;durP2;ratioP2
61015;SDS011;46902;52.920;6.536;2023-07-20T00:00:28;4.38;;;1.85;;
61015;SDS011;46902;52.920;6.536;2023-07-20T00:03:09;5.03;;;2.10;;
61015;SDS011;46902;52.920;6.536;2023-07-20T00:05:42;3.83;;;2.55;;
61015;SDS011;46902;52.920;6.536;2023-07-20T00:08:09;4.28;;;1.95;;
61015;SDS011;46902;52.920;6.536;2023-07-20T00:10:34;3.58;;;2.00;;
61015;SDS011;46902;52.920;6.536;2023-07-20T00:13:00;6.60;;;2.50;;
61015;SDS011;46902;52.920;6.536;2023-07-20T00:15:25;3.85;;;3.00;;
61015;SDS011;46902;52.920;6.536;2023-07-20T00:17:51;3.25;;;2.22;;
61015;SDS011;46902;52.920;6.536;2023-07-20T00:20:17;2.80;;;2.30;;
61015;SDS011;46902;52.920;6.536;2023-07-20T00:22:42;2.50;;;2.30;;
61015;SDS011;46902;52.920;6.536;2023-07-20T00:25:08;3.67;;;2.85;;
61015;SDS011;46902;52.920;6.536;2023-07-20T00:27:36;3.55;;;2.60;;
61015;SDS011;46902;52.920;6.536;2023-07-20T00:30:03;6.13;;;2.80;;
61015;SDS011;46902;52.920;6.536;2023-07-20T00:32:29;3.30;;;2.83;;
61015;SDS011;46902;52.920;6.536;2023-07-20T00:34:55;4.35;;;2.70;;
61015;SDS011;46902;52.920;6.536;2023-07-20T00:37:20;5.65;;;2.83;;
61015;SDS011;46902;52.920;6.536;2023-07-20T00:39:46;3.67;;;2.70;;
61015;SDS011;46902;52.920;6.536;2023-07-20T00:42:12;6.90;;;2.97;;
61015;SDS011;46902;52.920;6.536;2023-07-20T00:44:37;3.85;;;2.65;;
61015;SDS011;46902;52.920;6.536;2023-07-20T00:47:03;4.65;;;2.90;;
61015;SDS011;46902;52.920;6.536;2023-07-20T00:49:30;4.65;;;2.70;;
61015;SDS011;46902;52.920;6.536;2023-07-20T00:51:56;4.18;;;3.17;;
61015;SDS011;46902;52.920;6.536;2023-07-20T00:54:23;3.88;;;3.22;;
61015;SDS011;46902;52.920;6.536;2023-07-20T00:56:49;4.00;;;3.25;;
61015;SDS011;46902;52.920;6.536;2023-07-20T00:59:17;3.72;;;3.13;;
61015;SDS011;46902;52.920;6.536;2023-07-20T01:01:43;5.15;;;3.65;;
61015;SDS011;46902;52.920;6.536;2023-07-20T01:04:08;3.90;;;3.45;;
61015;SDS011;46902;52.920;6.536;2023-07-20T01:06:43;4.70;;;3.47;;
61015;SDS011;46902;52.920;6.536;2023-07-20T01:09:19;3.83;;;3.30;;
61015;SDS011;46902;52.920;6.536;2023-07-20T01:12:07;5.82;;;3.22;;
61015;SDS011;46902;52.920;6.536;2023-07-20T01:14:42;6.35;;;3.40;;
61015;SDS011;46902;52.920;6.536;2023-07-20T01:17:08;5.22;;;3.60;;
61015;SDS011;46902;52.920;6.536;2023-07-20T01:19:33;4.63;;;3.20;;
61015;SDS011;46902;52.920;6.536;2023-07-20T01:30:44;7.28;;;4.15;;
61015;SDS011;46902;52.920;6.536;2023-07-20T01:33:17;4.30;;;3.47;;
61015;SDS011;46902;52.920;6.536;2023-07-20T01:35:46;6.03;;;3.38;;
61015;SDS011;46902;52.920;6.536;2023-07-20T01:38:17;4.95;;;4.15;;
61015;SDS011;46902;52.920;6.536;2023-07-20T01:40:44;3.97;;;3.60;;
61015;SDS011;46902;52.920;6.536;2023-07-20T01:43:10;5.85;;;3.80;;
61015;SDS011;46902;52.920;6.536;2023-07-20T01:45:37;3.85;;;3.25;;
61015;SDS011;46902;52.920;6.536;2023-07-20T01:48:02;6.53;;;3.65;;
61015;SDS011;46902;52.920;6.536;2023-07-20T01:50:28;6.13;;;3.95;;
61015;SDS011;46902;52.920;6.536;2023-07-20T01:52:54;6.88;;;3.63;;
61015;SDS011;46902;52.920;6.536;2023-07-20T01:55:20;7.68;;;3.92;;
61015;SDS011;46902;52.920;6.536;2023-07-20T01:57:45;7.13;;;4.10;;
61015;SDS011;46902;52.920;6.536;2023-07-20T02:00:11;4.90;;;4.15;;
61015;SDS011;46902;52.920;6.536;2023-07-20T02:02:37;5.70;;;4.07;;
61015;SDS011;46902;52.920;6.536;2023-07-20T02:05:02;5.80;;;4.03;;
61015;SDS011;46902;52.920;6.536;2023-07-20T02:07:28;4.03;;;3.55;;
61015;SDS011;46902;52.920;6.536;2023-07-20T02:09:54;4.80;;;4.30;;
61015;SDS011;46902;52.920;6.536;2023-07-20T02:12:19;5.00;;;3.88;;
61015;SDS011;46902;52.920;6.536;2023-07-20T02:14:45;5.00;;;4.45;;
61015;SDS011;46902;52.920;6.536;2023-07-20T02:17:11;4.70;;;4.25;;
61015;SDS011;46902;52.920;6.536;2023-07-20T02:19:36;5.95;;;4.28;;
61015;SDS011;46902;52.920;6.536;2023-07-20T02:22:02;7.53;;;4.80;;
61015;SDS011;46902;52.920;6.536;2023-07-20T02:24:28;4.97;;;4.47;;
61015;SDS011;46902;52.920;6.536;2023-07-20T02:26:53;7.22;;;4.53;;
61015;SDS011;46902;52.920;6.536;2023-07-20T02:29:19;6.03;;;4.35;;
61015;SDS011;46902;52.920;6.536;2023-07-20T02:31:44;5.15;;;4.18;;
61015;SDS011;46902;52.920;6.536;2023-07-20T02:34:10;5.43;;;4.60;;
61015;SDS011;46902;52.920;6.536;2023-07-20T02:36:35;6.03;;;4.28;;
61015;SDS011;46902;52.920;6.536;2023-07-20T02:39:01;4.35;;;3.58;;
61015;SDS011;46902;52.920;6.536;2023-07-20T02:41:29;9.07;;;3.90;;
61015;SDS011;46902;52.920;6.536;2023-07-20T02:43:58;4.85;;;3.40;;
61015;SDS011;46902;52.920;6.536;2023-07-20T02:46:24;5.00;;;3.22;;
61015;SDS011;46902;52.920;6.536;2023-07-20T02:48:50;4.05;;;3.65;;
61015;SDS011;46902;52.920;6.536;2023-07-20T02:51:15;6.78;;;3.85;;
61015;SDS011;46902;52.920;6.536;2023-07-20T02:53:41;5.70;;;3.75;;
61015;SDS011;46902;52.920;6.536;2023-07-20T02:56:06;4.47;;;3.30;;
61015;SDS011;46902;52.920;6.536;2023-07-20T02:58:33;3.83;;;3.35;;
61015;SDS011;46902;52.920;6.536;2023-07-20T03:01:02;3.70;;;3.30;;
61015;SDS011;46902;52.920;6.536;2023-07-20T03:03:28;4.38;;;3.00;;
61015;SDS011;46902;52.920;6.536;2023-07-20T03:05:53;4.38;;;3.83;;
61015;SDS011;46902;52.920;6.536;2023-07-20T03:08:21;3.35;;;2.95;;
61015;SDS011;46902;52.920;6.536;2023-07-20T03:10:47;5.20;;;3.33;;
61015;SDS011;46902;52.920;6.536;2023-07-20T03:13:12;4.82;;;3.70;;
61015;SDS011;46902;52.920;6.536;2023-07-20T03:15:39;4.75;;;3.10;;
61015;SDS011;46902;52.920;6.536;2023-07-20T03:18:04;6.85;;;3.45;;
61015;SDS011;46902;52.920;6.536;2023-07-20T03:20:30;3.47;;;3.05;;
61015;SDS011;46902;52.920;6.536;2023-07-20T03:22:56;7.18;;;3.55;;
61015;SDS011;46902;52.920;6.536;2023-07-20T03:25:22;7.93;;;3.47;;
61015;SDS011;46902;52.920;6.536;2023-07-20T03:27:47;4.30;;;2.80;;
61015;SDS011;46902;52.920;6.536;2023-07-20T03:30:13;4.70;;;3.20;;
61015;SDS011;46902;52.920;6.536;2023-07-20T03:32:39;6.22;;;3.97;;
61015;SDS011;46902;52.920;6.536;2023-07-20T03:35:04;4.55;;;3.30;;
61015;SDS011;46902;52.920;6.536;2023-07-20T03:37:31;4.68;;;3.42;;
61015;SDS011;46902;52.920;6.536;2023-07-20T03:39:56;11.85;;;2.63;;
61015;SDS011;46902;52.920;6.536;2023-07-20T03:42:22;2.90;;;2.70;;
61015;SDS011;46902;52.920;6.536;2023-07-20T03:44:48;3.60;;;3.30;;
61015;SDS011;46902;52.920;6.536;2023-07-20T03:47:14;6.10;;;3.95;;
61015;SDS011;46902;52.920;6.536;2023-07-20T03:49:39;3.95;;;3.13;;
61015;SDS011;46902;52.920;6.536;2023-07-20T03:52:05;4.07;;;3.65;;
61015;SDS011;46902;52.920;6.536;2023-07-20T03:54:31;6.72;;;4.18;;
61015;SDS011;46902;52.920;6.536;2023-07-20T03:56:56;4.40;;;3.80;;
61015;SDS011;46902;52.920;6.536;2023-07-20T03:59:22;5.57;;;3.92;;
61015;SDS011;46902;52.920;6.536;2023-07-20T04:01:48;6.22;;;3.83;;
61015;SDS011;46902;52.920;6.536;2023-07-20T04:04:15;5.10;;;3.83;;
61015;SDS011;46902;52.920;6.536;2023-07-20T04:06:41;5.80;;;3.45;;
61015;SDS011;46902;52.920;6.536;2023-07-20T04:09:09;6.50;;;3.22;;
61015;SDS011;46902;52.920;6.536;2023-07-20T04:11:36;5.68;;;3.28;;
61015;SDS011;46902;52.920;6.536;2023-07-20T04:14:01;4.72;;;3.33;;
61015;SDS011;46902;52.920;6.536;2023-07-20T04:16:27;4.40;;;2.92;;
61015;SDS011;46902;52.920;6.536;2023-07-20T04:18:54;3.53;;;2.95;;
61015;SDS011;46902;52.920;6.536;2023-07-20T04:21:21;4.95;;;3.17;;
61015;SDS011;46902;52.920;6.536;2023-07-20T04:23:46;4.07;;;3.35;;
61015;SDS011;46902;52.920;6.536;2023-07-20T04:26:12;4.20;;;3.38;;
61015;SDS011;46902;52.920;6.536;2023-07-20T04:28:39;5.13;;;3.70;;
61015;SDS011;46902;52.920;6.536;2023-07-20T04:31:13;6.45;;;3.60;;
61015;SDS011;46902;52.920;6.536;2023-07-20T04:33:40;3.88;;;3.47;;
61015;SDS011;46902;52.920;6.536;2023-07-20T04:36:05;4.18;;;3.22;;
61015;SDS011;46902;52.920;6.536;2023-07-20T04:38:31;4.88;;;3.42;;
61015;SDS011;46902;52.920;6.536;2023-07-20T04:40:57;5.65;;;3.30;;
61015;SDS011;46902;52.920;6.536;2023-07-20T04:43:22;4.10;;;3.00;;
61015;SDS011;46902;52.920;6.536;2023-07-20T04:45:48;6.20;;;3.88;;
61015;SDS011;46902;52.920;6.536;2023-07-20T04:48:14;4.43;;;3.67;;
61015;SDS011;46902;52.920;6.536;2023-07-20T04:50:41;7.25;;;3.90;;
61015;SDS011;46902;52.920;6.536;2023-07-20T04:53:16;4.43;;;3.20;;
61015;SDS011;46902;52.920;6.536;2023-07-20T04:55:47;4.32;;;3.28;;
61015;SDS011;46902;52.920;6.536;2023-07-20T04:58:17;5.75;;;3.78;;
61015;SDS011;46902;52.920;6.536;2023-07-20T05:00:44;4.47;;;3.38;;
61015;SDS011;46902;52.920;6.536;2023-07-20T05:03:09;6.20;;;3.47;;
61015;SDS011;46902;52.920;6.536;2023-07-20T05:05:35;5.68;;;3.50;;
61015;SDS011;46902;52.920;6.536;2023-07-20T05:08:01;6.57;;;3.28;;
61015;SDS011;46902;52.920;6.536;2023-07-20T05:10:26;3.83;;;2.92;;
61015;SDS011;46902;52.920;6.536;2023-07-20T05:12:52;3.95;;;3.45;;
61015;SDS011;46902;52.920;6.536;2023-07-20T05:15:17;6.95;;;3.55;;
61015;SDS011;46902;52.920;6.536;2023-07-20T05:17:43;3.63;;;3.08;;
61015;SDS011;46902;52.920;6.536;2023-07-20T05:20:09;7.00;;;3.03;;
61015;SDS011;46902;52.920;6.536;2023-07-20T05:22:35;5.22;;;3.20;;
61015;SDS011;46902;52.920;6.536;2023-07-20T05:25:05;3.90;;;3.10;;
61015;SDS011;46902;52.920;6.536;2023-07-20T05:27:37;4.38;;;2.88;;
61015;SDS011;46902;52.920;6.536;2023-07-20T05:30:04;4.22;;;2.75;;
61015;SDS011;46902;52.920;6.536;2023-07-20T05:32:32;5.78;;;2.70;;
61015;SDS011;46902;52.920;6.536;2023-07-20T05:34:58;5.03;;;2.60;;
61015;SDS011;46902;52.920;6.536;2023-07-20T05:37:23;4.00;;;2.28;;
61015;SDS011;46902;52.920;6.536;2023-07-20T05:39:49;4.55;;;2.38;;
61015;SDS011;46902;52.920;6.536;2023-07-20T05:42:15;4.32;;;2.25;;
61015;SDS011;46902;52.920;6.536;2023-07-20T05:44:41;3.58;;;2.22;;
61015;SDS011;46902;52.920;6.536;2023-07-20T05:47:06;5.57;;;2.13;;
61015;SDS011;46902;52.920;6.536;2023-07-20T05:49:32;4.97;;;2.10;;
61015;SDS011;46902;52.920;6.536;2023-07-20T05:51:58;2.92;;;2.00;;
61015;SDS011;46902;52.920;6.536;2023-07-20T05:54:25;3.55;;;1.73;;
61015;SDS011;46902;52.920;6.536;2023-07-20T05:56:52;4.35;;;2.10;;
61015;SDS011;46902;52.920;6.536;2023-07-20T05:59:18;7.28;;;2.38;;
61015;SDS011;46902;52.920;6.536;2023-07-20T06:01:45;3.42;;;1.80;;
61015;SDS011;46902;52.920;6.536;2023-07-20T06:04:12;5.65;;;1.80;;
61015;SDS011;46902;52.920;6.536;2023-07-20T06:06:37;4.65;;;2.05;;
61015;SDS011;46902;52.920;6.536;2023-07-20T06:09:04;4.75;;;1.77;;
61015;SDS011;46902;52.920;6.536;2023-07-20T06:11:32;6.10;;;2.00;;
61015;SDS011;46902;52.920;6.536;2023-07-20T06:13:58;3.42;;;1.55;;
61015;SDS011;46902;52.920;6.536;2023-07-20T06:16:23;3.58;;;1.45;;
61015;SDS011;46902;52.920;6.536;2023-07-20T06:18:49;4.93;;;1.42;;
61015;SDS011;46902;52.920;6.536;2023-07-20T06:21:15;4.85;;;1.80;;
61015;SDS011;46902;52.920;6.536;2023-07-20T06:23:40;4.78;;;1.58;;
61015;SDS011;46902;52.920;6.536;2023-07-20T06:26:06;6.50;;;1.70;;
61015;SDS011;46902;52.920;6.536;2023-07-20T06:28:32;3.47;;;1.50;;
61015;SDS011;46902;52.920;6.536;2023-07-20T06:31:01;3.30;;;1.92;;
61015;SDS011;46902;52.920;6.536;2023-07-20T06:33:27;4.03;;;1.30;;
61015;SDS011;46902;52.920;6.536;2023-07-20T06:35:53;5.72;;;1.70;;
61015;SDS011;46902;52.920;6.536;2023-07-20T06:38:19;3.63;;;1.38;;
61015;SDS011;46902;52.920;6.536;2023-07-20T06:40:48;3.03;;;1.00;;
61015;SDS011;46902;52.920;6.536;2023-07-20T06:43:14;2.78;;;0.98;;
61015;SDS011;46902;52.920;6.536;2023-07-20T06:45:41;4.15;;;1.10;;
61015;SDS011;46902;52.920;6.536;2023-07-20T06:48:06;3.83;;;0.90;;
61015;SDS011;46902;52.920;6.536;2023-07-20T06:50:32;6.97;;;1.02;;
61015;SDS011;46902;52.920;6.536;2023-07-20T06:52:58;3.47;;;0.80;;
61015;SDS011;46902;52.920;6.536;2023-07-20T06:55:24;5.38;;;0.90;;
61015;SDS011;46902;52.920;6.536;2023-07-20T06:57:51;5.82;;;1.30;;
61015;SDS011;46902;52.920;6.536;2023-07-20T07:00:16;3.75;;;0.80;;
61015;SDS011;46902;52.920;6.536;2023-07-20T07:02:43;3.80;;;0.93;;
61015;SDS011;46902;52.920;6.536;2023-07-20T07:05:08;4.68;;;0.98;;
61015;SDS011;46902;52.920;6.536;2023-07-20T07:07:34;3.50;;;0.90;;
61015;SDS011;46902;52.920;6.536;2023-07-20T07:10:00;4.20;;;0.80;;
61015;SDS011;46902;52.920;6.536;2023-07-20T07:12:29;7.75;;;1.10;;
61015;SDS011;46902;52.920;6.536;2023-07-20T07:14:55;3.58;;;0.82;;
61015;SDS011;46902;52.920;6.536;2023-07-20T07:17:21;2.92;;;0.80;;
61015;SDS011;46902;52.920;6.536;2023-07-20T07:19:46;4.50;;;0.70;;
61015;SDS011;46902;52.920;6.536;2023-07-20T07:22:12;2.83;;;0.73;;
61015;SDS011;46902;52.920;6.536;2023-07-20T07:24:38;2.75;;;0.70;;
61015;SDS011;46902;52.920;6.536;2023-07-20T07:27:08;2.53;;;0.63;;
61015;SDS011;46902;52.920;6.536;2023-07-20T07:29:34;5.93;;;0.88;;
61015;SDS011;46902;52.920;6.536;2023-07-20T07:31:59;3.47;;;0.90;;
61015;SDS011;46902;52.920;6.536;2023-07-20T07:34:26;5.53;;;0.70;;
61015;SDS011;46902;52.920;6.536;2023-07-20T07:36:52;5.10;;;0.80;;
61015;SDS011;46902;52.920;6.536;2023-07-20T07:39:17;3.38;;;0.90;;
61015;SDS011;46902;52.920;6.536;2023-07-20T07:41:43;5.07;;;0.95;;
61015;SDS011;46902;52.920;6.536;2023-07-20T07:44:09;2.45;;;0.70;;
61015;SDS011;46902;52.920;6.536;2023-07-20T07:46:34;4.38;;;0.88;;
61015;SDS011;46902;52.920;6.536;2023-07-20T07:49:00;3.00;;;0.65;;
61015;SDS011;46902;52.920;6.536;2023-07-20T07:51:25;3.45;;;0.65;;
61015;SDS011;46902;52.920;6.536;2023-07-20T07:53:52;2.15;;;0.50;;
61015;SDS011;46902;52.920;6.536;2023-07-20T07:56:18;1.98;;;0.75;;
61015;SDS011;46902;52.920;6.536;2023-07-20T07:58:48;2.75;;;0.60;;
61015;SDS011;46902;52.920;6.536;2023-07-20T08:01:14;4.38;;;0.77;;
61015;SDS011;46902;52.920;6.536;2023-07-20T08:03:39;4.15;;;0.68;;
61015;SDS011;46902;52.920;6.536;2023-07-20T08:06:05;2.92;;;0.80;;
61015;SDS011;46902;52.920;6.536;2023-07-20T08:08:31;3.70;;;0.60;;
61015;SDS011;46902;52.920;6.536;2023-07-20T08:10:57;3.08;;;0.60;;
61015;SDS011;46902;52.920;6.536;2023-07-20T08:13:23;4.00;;;0.75;;
61015;SDS011;46902;52.920;6.536;2023-07-20T08:15:49;3.45;;;0.80;;
61015;SDS011;46902;52.920;6.536;2023-07-20T08:18:19;3.28;;;0.68;;
61015;SDS011;46902;52.920;6.536;2023-07-20T08:20:45;2.97;;;0.63;;
61015;SDS011;46902;52.920;6.536;2023-07-20T08:23:11;1.92;;;0.70;;
61015;SDS011;46902;52.920;6.536;2023-07-20T08:25:37;2.17;;;0.60;;
61015;SDS011;46902;52.920;6.536;2023-07-20T08:28:04;2.33;;;0.60;;
61015;SDS011;46902;52.920;6.536;2023-07-20T08:30:39;2.20;;;0.60;;
61015;SDS011;46902;52.920;6.536;2023-07-20T08:33:15;1.40;;;0.40;;
61015;SDS011;46902;52.920;6.536;2023-07-20T08:35:45;4.72;;;1.00;;
61015;SDS011;46902;52.920;6.536;2023-07-20T08:38:11;3.17;;;0.75;;
61015;SDS011;46902;52.920;6.536;2023-07-20T08:40:55;1.98;;;0.50;;
61015;SDS011;46902;52.920;6.536;2023-07-20T08:43:22;2.55;;;0.50;;
61015;SDS011;46902;52.920;6.536;2023-07-20T08:45:52;2.58;;;0.70;;
61015;SDS011;46902;52.920;6.536;2023-07-20T08:48:20;4.75;;;0.90;;
61015;SDS011;46902;52.920;6.536;2023-07-20T08:50:47;2.70;;;0.70;;
61015;SDS011;46902;52.920;6.536;2023-07-20T08:53:16;2.28;;;0.60;;
61015;SDS011;46902;52.920;6.536;2023-07-20T08:55:43;3.35;;;0.75;;
61015;SDS011;46902;52.920;6.536;2023-07-20T08:58:11;2.08;;;0.60;;
61015;SDS011;46902;52.920;6.536;2023-07-20T09:00:39;3.35;;;0.50;;
61015;SDS011;46902;52.920;6.536;2023-07-20T09:03:06;2.30;;;0.70;;
61015;SDS011;46902;52.920;6.536;2023-07-20T09:05:33;3.72;;;1.02;;
61015;SDS011;46902;52.920;6.536;2023-07-20T09:08:00;3.22;;;0.60;;
61015;SDS011;46902;52.920;6.536;2023-07-20T09:10:28;1.13;;;0.50;;
61015;SDS011;46902;52.920;6.536;2023-07-20T09:12:54;2.70;;;0.80;;
61015;SDS011;46902;52.920;6.536;2023-07-20T09:15:20;5.22;;;0.80;;
61015;SDS011;46902;52.920;6.536;2023-07-20T09:17:47;3.75;;;0.77;;
61015;SDS011;46902;52.920;6.536;2023-07-20T09:20:17;5.18;;;0.70;;
61015;SDS011;46902;52.920;6.536;2023-07-20T09:22:43;3.58;;;0.77;;
61015;SDS011;46902;52.920;6.536;2023-07-20T09:25:13;6.03;;;1.23;;
61015;SDS011;46902;52.920;6.536;2023-07-20T09:27:44;4.28;;;0.80;;
61015;SDS011;46902;52.920;6.536;2023-07-20T09:30:10;3.85;;;1.10;;
61015;SDS011;46902;52.920;6.536;2023-07-20T09:32:38;4.50;;;0.88;;
61015;SDS011;46902;52.920;6.536;2023-07-20T09:35:18;5.95;;;1.17;;
61015;SDS011;46902;52.920;6.536;2023-07-20T09:37:49;4.53;;;1.05;;
61015;SDS011;46902;52.920;6.536;2023-07-20T09:40:20;3.88;;;1.10;;
61015;SDS011;46902;52.920;6.536;2023-07-20T09:42:46;3.33;;;1.17;;
61015;SDS011;46902;52.920;6.536;2023-07-20T09:45:13;4.05;;;1.20;;
61015;SDS011;46902;52.920;6.536;2023-07-20T09:47:39;5.28;;;1.00;;
61015;SDS011;46902;52.920;6.536;2023-07-20T09:50:06;2.28;;;0.93;;
61015;SDS011;46902;52.920;6.536;2023-07-20T09:52:42;3.45;;;1.27;;
61015;SDS011;46902;52.920;6.536;2023-07-20T09:55:10;4.10;;;0.80;;
61015;SDS011;46902;52.920;6.536;2023-07-20T09:57:38;2.60;;;1.08;;
61015;SDS011;46902;52.920;6.536;2023-07-20T10:00:04;4.38;;;1.17;;
61015;SDS011;46902;52.920;6.536;2023-07-20T10:02:42;3.10;;;0.80;;
61015;SDS011;46902;52.920;6.536;2023-07-20T10:05:09;2.90;;;0.80;;
61015;SDS011;46902;52.920;6.536;2023-07-20T10:07:39;1.33;;;0.75;;
61015;SDS011;46902;52.920;6.536;2023-07-20T10:10:10;3.47;;;0.90;;
61015;SDS011;46902;52.920;6.536;2023-07-20T10:12:36;3.90;;;0.88;;
61015;SDS011;46902;52.920;6.536;2023-07-20T10:15:11;2.70;;;1.10;;
61015;SDS011;46902;52.920;6.536;2023-07-20T10:17:40;2.95;;;0.88;;
61015;SDS011;46902;52.920;6.536;2023-07-20T10:20:28;2.22;;;1.20;;
61015;SDS011;46902;52.920;6.536;2023-07-20T10:22:56;4.18;;;0.88;;
61015;SDS011;46902;52.920;6.536;2023-07-20T10:25:23;2.15;;;1.00;;
61015;SDS011;46902;52.920;6.536;2023-07-20T10:27:48;3.47;;;1.05;;
61015;SDS011;46902;52.920;6.536;2023-07-20T10:30:14;2.80;;;1.02;;
61015;SDS011;46902;52.920;6.536;2023-07-20T10:32:41;4.78;;;1.10;;
61015;SDS011;46902;52.920;6.536;2023-07-20T10:35:12;2.55;;;1.30;;
61015;SDS011;46902;52.920;6.536;2023-07-20T10:37:49;1.70;;;0.70;;
61015;SDS011;46902;52.920;6.536;2023-07-20T10:40:27;1.67;;;0.80;;
61015;SDS011;46902;52.920;6.536;2023-07-20T10:43:00;4.35;;;1.10;;
61015;SDS011;46902;52.920;6.536;2023-07-20T10:45:37;2.33;;;1.00;;
61015;SDS011;46902;52.920;6.536;2023-07-20T10:48:16;3.35;;;1.20;;
61015;SDS011;46902;52.920;6.536;2023-07-20T10:51:08;2.83;;;1.10;;
61015;SDS011;46902;52.920;6.536;2023-07-20T10:53:35;2.85;;;1.00;;
61015;SDS011;46902;52.920;6.536;2023-07-20T10:56:14;2.95;;;0.93;;
61015;SDS011;46902;52.920;6.536;2023-07-20T10:58:44;2.33;;;1.10;;
61015;SDS011;46902;52.920;6.536;2023-07-20T11:01:11;3.90;;;1.20;;
61015;SDS011;46902;52.920;6.536;2023-07-20T11:03:39;4.90;;;1.58;;
61015;SDS011;46902;52.920;6.536;2023-07-20T11:06:29;4.85;;;1.58;;
61015;SDS011;46902;52.920;6.536;2023-07-20T11:09:02;4.32;;;1.33;;
61015;SDS011;46902;52.920;6.536;2023-07-20T11:11:34;3.70;;;1.27;;
61015;SDS011;46902;52.920;6.536;2023-07-20T11:14:08;3.95;;;1.40;;
61015;SDS011;46902;52.920;6.536;2023-07-20T11:16:36;2.65;;;1.23;;
61015;SDS011;46902;52.920;6.536;2023-07-20T11:19:13;4.05;;;1.50;;
61015;SDS011;46902;52.920;6.536;2023-07-20T11:21:43;2.25;;;0.90;;
61015;SDS011;46902;52.920;6.536;2023-07-20T11:24:10;1.70;;;1.00;;
61015;SDS011;46902;52.920;6.536;2023-07-20T11:26:43;3.08;;;1.27;;
61015;SDS011;46902;52.920;6.536;2023-07-20T11:29:10;3.88;;;1.13;;
61015;SDS011;46902;52.920;6.536;2023-07-20T11:31:41;2.67;;;1.20;;
61015;SDS011;46902;52.920;6.536;2023-07-20T11:34:25;2.92;;;1.20;;
61015;SDS011;46902;52.920;6.536;2023-07-20T11:36:52;2.53;;;1.10;;
61015;SDS011;46902;52.920;6.536;2023-07-20T11:39:18;3.28;;;1.15;;
61015;SDS011;46902;52.920;6.536;2023-07-20T11:41:48;3.30;;;1.10;;
61015;SDS011;46902;52.920;6.536;2023-07-20T11:44:16;3.78;;;1.20;;
61015;SDS011;46902;52.920;6.536;2023-07-20T11:46:43;3.92;;;1.40;;
61015;SDS011;46902;52.920;6.536;2023-07-20T11:49:12;2.95;;;1.30;;
61015;SDS011;46902;52.920;6.536;2023-07-20T11:51:38;4.38;;;1.50;;
61015;SDS011;46902;52.920;6.536;2023-07-20T11:54:06;3.08;;;1.50;;
61015;SDS011;46902;52.920;6.536;2023-07-20T11:56:33;4.40;;;1.40;;
61015;SDS011;46902;52.920;6.536;2023-07-20T11:58:58;4.40;;;1.38;;
61015;SDS011;46902;52.920;6.536;2023-07-20T12:01:26;3.60;;;1.40;;
61015;SDS011;46902;52.920;6.536;2023-07-20T12:04:00;4.32;;;1.40;;
61015;SDS011;46902;52.920;6.536;2023-07-20T12:06:27;2.08;;;1.20;;
61015;SDS011;46902;52.920;6.536;2023-07-20T12:08:57;3.08;;;1.55;;
61015;SDS011;46902;52.920;6.536;2023-07-20T12:11:30;4.13;;;1.58;;
61015;SDS011;46902;52.920;6.536;2023-07-20T12:16:26;4.38;;;1.40;;
61015;SDS011;46902;52.920;6.536;2023-07-20T12:18:59;2.90;;;1.23;;
61015;SDS011;46902;52.920;6.536;2023-07-20T12:21:33;2.80;;;1.30;;
61015;SDS011;46902;52.920;6.536;2023-07-20T12:24:02;3.13;;;1.30;;
61015;SDS011;46902;52.920;6.536;2023-07-20T12:26:31;5.03;;;1.50;;
61015;SDS011;46902;52.920;6.536;2023-07-20T12:28:59;2.63;;;1.20;;
61015;SDS011;46902;52.920;6.536;2023-07-20T12:31:25;4.90;;;1.35;;
61015;SDS011;46902;52.920;6.536;2023-07-20T12:33:52;2.53;;;1.20;;
61015;SDS011;46902;52.920;6.536;2023-07-20T12:36:20;5.07;;;1.00;;
61015;SDS011;46902;52.920;6.536;2023-07-20T12:38:46;3.70;;;0.93;;
61015;SDS011;46902;52.920;6.536;2023-07-20T12:41:12;4.45;;;1.40;;
61015;SDS011;46902;52.920;6.536;2023-07-20T12:43:38;7.35;;;1.17;;
61015;SDS011;46902;52.920;6.536;2023-07-20T12:46:05;4.40;;;1.50;;
61015;SDS011;46902;52.920;6.536;2023-07-20T12:48:31;3.30;;;1.20;;
61015;SDS011;46902;52.920;6.536;2023-07-20T12:50:56;3.63;;;1.10;;
61015;SDS011;46902;52.920;6.536;2023-07-20T12:53:22;2.88;;;1.23;;
61015;SDS011;46902;52.920;6.536;2023-07-20T12:55:47;4.13;;;1.15;;
61015;SDS011;46902;52.920;6.536;2023-07-20T12:58:13;4.25;;;1.60;;
61015;SDS011;46902;52.920;6.536;2023-07-20T13:00:39;4.88;;;1.55;;
61015;SDS011;46902;52.920;6.536;2023-07-20T13:03:05;4.05;;;1.38;;
61015;SDS011;46902;52.920;6.536;2023-07-20T13:05:32;2.28;;;1.33;;
61015;SDS011;46902;52.920;6.536;2023-07-20T13:07:57;3.22;;;1.27;;
61015;SDS011;46902;52.920;6.536;2023-07-20T13:10:23;5.40;;;1.75;;
61015;SDS011;46902;52.920;6.536;2023-07-20T13:12:49;7.50;;;1.50;;
61015;SDS011;46902;52.920;6.536;2023-07-20T13:15:15;6.20;;;1.20;;
61015;SDS011;46902;52.920;6.536;2023-07-20T13:17:42;4.60;;;1.60;;
61015;SDS011;46902;52.920;6.536;2023-07-20T13:20:08;4.97;;;2.00;;
61015;SDS011;46902;52.920;6.536;2023-07-20T13:22:36;3.50;;;1.35;;
61015;SDS011;46902;52.920;6.536;2023-07-20T13:25:02;2.75;;;1.27;;
61015;SDS011;46902;52.920;6.536;2023-07-20T13:27:28;3.67;;;1.50;;
61015;SDS011;46902;52.920;6.536;2023-07-20T13:29:53;5.07;;;1.30;;
61015;SDS011;46902;52.920;6.536;2023-07-20T13:32:19;3.35;;;1.70;;
61015;SDS011;46902;52.920;6.536;2023-07-20T13:34:45;3.95;;;1.20;;
61015;SDS011;46902;52.920;6.536;2023-07-20T13:37:11;3.85;;;1.77;;
61015;SDS011;46902;52.920;6.536;2023-07-20T13:39:38;4.28;;;1.50;;
61015;SDS011;46902;52.920;6.536;2023-07-20T13:42:04;3.22;;;1.55;;
61015;SDS011;46902;52.920;6.536;2023-07-20T13:44:30;4.90;;;1.70;;
61015;SDS011;46902;52.920;6.536;2023-07-20T13:47:00;3.78;;;1.60;;
61015;SDS011;46902;52.920;6.536;2023-07-20T13:49:26;6.13;;;1.80;;
61015;SDS011;46902;52.920;6.536;2023-07-20T13:51:51;4.05;;;1.83;;
61015;SDS011;46902;52.920;6.536;2023-07-20T13:54:17;4.10;;;1.63;;
61015;SDS011;46902;52.920;6.536;2023-07-20T13:56:43;4.55;;;1.60;;
61015;SDS011;46902;52.920;6.536;2023-07-20T13:59:08;9.27;;;2.10;;
61015;SDS011;46902;52.920;6.536;2023-07-20T14:01:34;5.03;;;1.77;;
61015;SDS011;46902;52.920;6.536;2023-07-20T14:04:00;4.55;;;1.40;;
61015;SDS011;46902;52.920;6.536;2023-07-20T14:06:29;3.20;;;1.70;;
61015;SDS011;46902;52.920;6.536;2023-07-20T14:08:56;4.15;;;1.58;;
61015;SDS011;46902;52.920;6.536;2023-07-20T14:11:22;4.50;;;1.48;;
61015;SDS011;46902;52.920;6.536;2023-07-20T14:13:49;3.38;;;1.42;;
61015;SDS011;46902;52.920;6.536;2023-07-20T14:16:15;7.25;;;1.50;;
61015;SDS011;46902;52.920;6.536;2023-07-20T14:18:40;2.55;;;1.23;;
61015;SDS011;46902;52.920;6.536;2023-07-20T14:21:06;3.75;;;1.23;;
61015;SDS011;46902;52.920;6.536;2023-07-20T14:23:33;5.97;;;1.20;;
61015;SDS011;46902;52.920;6.536;2023-07-20T14:25:59;2.10;;;0.90;;
61015;SDS011;46902;52.920;6.536;2023-07-20T14:28:24;5.45;;;1.50;;
61015;SDS011;46902;52.920;6.536;2023-07-20T14:30:50;3.97;;;1.27;;
61015;SDS011;46902;52.920;6.536;2023-07-20T14:33:16;3.47;;;1.15;;
61015;SDS011;46902;52.920;6.536;2023-07-20T14:35:41;4.90;;;1.42;;
61015;SDS011;46902;52.920;6.536;2023-07-20T14:38:07;5.35;;;1.25;;
61015;SDS011;46902;52.920;6.536;2023-07-20T14:40:32;4.78;;;1.23;;
61015;SDS011;46902;52.920;6.536;2023-07-20T14:42:58;2.67;;;1.17;;
61015;SDS011;46902;52.920;6.536;2023-07-20T14:45:26;2.95;;;1.27;;
61015;SDS011;46902;52.920;6.536;2023-07-20T14:47:52;4.00;;;1.58;;
61015;SDS011;46902;52.920;6.536;2023-07-20T14:50:22;2.53;;;1.02;;
61015;SDS011;46902;52.920;6.536;2023-07-20T14:52:48;5.03;;;1.40;;
61015;SDS011;46902;52.920;6.536;2023-07-20T14:55:14;3.55;;;1.77;;
61015;SDS011;46902;52.920;6.536;2023-07-20T14:57:40;3.15;;;1.38;;
61015;SDS011;46902;52.920;6.536;2023-07-20T15:00:06;5.00;;;1.40;;